East Dummerston, Vermont
Current Conditions -  °F | °C
As of 2:55 PM on Thursday 30 Oct 2014 (Local Time) from KEEN Reporting Station
Overcast Overcast  
Wind Chill: 52°   Ceiling: 5000
Heat Index: 52°   Visibility: 10mi
Dew Point: 34°   Wind: 8mph
Humidity: 50%   Direction: 310°NW
Pressure: 29.93"   Gusts: NA
Location:  43.041°N, 72.534°W
Report Text: KEEN 301855Z AUTO 31007KT 10SM SCT043 OVC050 11/01 A2993 RMK AO1
Loading
Personal Weather Stations






























Interactive Weather Map
Tropical Storm Tracking
New forecast layout! Learn more

10-Day Weather Forecast

Advertisements
Track Severe Weather on mobile